Time;durP1;ratioP1;P1;durP2;ratioP2;P2;SDS_P1;SDS_P2;PMS_P1;PMS_P2;Temp;Humidity;BMP_temperature;BMP_pressure;BME280_temperature;BME280_humidity;BME280_pressure;Samples;Min_cycle;Max_cycle;Signal;HPM_P1;HPM_P2
2023/03/26 00:00:24;;;;;;;2.37;2.10;;;14.30;64.70;;;;;;6304977;22;20489;-63
2023/03/26 00:02:51;;;;;;;4.03;1.70;;;14.30;64.70;;;;;;6305157;22;21028;-64
2023/03/26 00:05:18;;;;;;;2.67;1.57;;;14.40;64.50;;;;;;6305708;22;20440;-63
2023/03/26 00:07:46;;;;;;;4.83;1.73;;;14.30;64.50;;;;;;6305828;22;20831;-63
2023/03/26 00:10:14;;;;;;;3.03;1.73;;;14.20;64.70;;;;;;6305944;22;20438;-64
2023/03/26 00:12:41;;;;;;;5.13;1.77;;;14.20;65.00;;;;;;6305504;22;20500;-63
2023/03/26 00:15:09;;;;;;;4.63;1.70;;;14.10;65.00;;;;;;6305744;22;20416;-63
2023/03/26 00:17:37;;;;;;;2.77;1.70;;;14.20;65.10;;;;;;6305634;22;20882;-63
2023/03/26 00:20:06;;;;;;;3.93;1.73;;;14.20;64.80;;;;;;6305541;22;20501;-63
2023/03/26 00:22:33;;;;;;;5.90;2.13;;;14.20;64.90;;;;;;6305122;22;20438;-63
2023/03/26 00:25:00;;;;;;;3.20;1.83;;;14.20;64.90;;;;;;6305752;22;20426;-63
2023/03/26 00:27:28;;;;;;;2.37;1.63;;;14.00;65.10;;;;;;6305727;22;20497;-64
2023/03/26 00:29:55;;;;;;;2.93;1.53;;;14.00;65.30;;;;;;6305670;22;20461;-62
2023/03/26 00:32:26;;;;;;;3.87;1.80;;;13.90;65.40;;;;;;6304694;22;20409;-62
2023/03/26 00:34:55;;;;;;;6.13;2.07;;;14.00;65.50;;;;;;6305495;22;20395;-63
2023/03/26 00:37:25;;;;;;;3.93;1.67;;;13.90;65.40;;;;;;6304417;22;20433;-64
2023/03/26 00:39:52;;;;;;;3.47;1.70;;;13.90;65.60;;;;;;6305237;22;20406;-64
2023/03/26 00:42:19;;;;;;;5.13;1.90;;;14.00;65.60;;;;;;6304768;22;20433;-63
2023/03/26 00:44:46;;;;;;;4.17;2.13;;;14.00;65.50;;;;;;6304630;22;20484;-63
2023/03/26 00:47:13;;;;;;;6.23;1.93;;;14.00;65.30;;;;;;6305363;22;20412;-62
2023/03/26 00:49:40;;;;;;;4.50;2.20;;;14.10;65.20;;;;;;6304334;22;20796;-63
2023/03/26 00:52:08;;;;;;;6.50;2.00;;;14.00;65.00;;;;;;6304060;22;20942;-63
2023/03/26 00:54:35;;;;;;;5.07;2.20;;;14.00;65.00;;;;;;6305316;22;20504;-63
2023/03/26 00:57:05;;;;;;;3.50;1.87;;;14.10;65.10;;;;;;6304499;22;20507;-63
2023/03/26 00:59:34;;;;;;;6.00;2.03;;;14.10;64.90;;;;;;6304503;22;20442;-63
2023/03/26 01:02:02;;;;;;;1.87;1.53;;;14.10;64.70;;;;;;6304754;22;20886;-63
2023/03/26 01:04:33;;;;;;;8.47;1.97;;;14.10;64.80;;;;;;6304852;22;20434;-63
2023/03/26 01:07:03;;;;;;;3.03;1.90;;;14.00;64.70;;;;;;6304914;22;20433;-63
2023/03/26 01:09:36;;;;;;;5.20;2.00;;;13.90;64.80;;;;;;6305270;22;20387;-64
2023/03/26 01:12:06;;;;;;;2.63;1.50;;;13.90;65.20;;;;;;6304645;22;20849;-63
2023/03/26 01:14:33;;;;;;;5.33;1.80;;;13.90;64.80;;;;;;6305345;22;20408;-63
2023/03/26 01:17:03;;;;;;;8.50;2.27;;;14.00;65.00;;;;;;6304640;22;20386;-63
2023/03/26 01:19:37;;;;;;;5.67;2.43;;;14.00;64.90;;;;;;6305045;22;20430;-63
2023/03/26 01:22:05;;;;;;;4.57;2.00;;;14.00;64.80;;;;;;6304612;22;20394;-63
2023/03/26 01:24:33;;;;;;;3.43;1.83;;;13.90;64.70;;;;;;6304976;22;20408;-63
2023/03/26 01:27:28;;;;;;;8.13;2.43;;;13.90;65.00;;;;;;6304272;22;20537;-64
2023/03/26 01:30:00;;;;;;;3.87;1.53;;;13.80;65.20;;;;;;6284666;22;20462;-63
2023/03/26 01:32:42;;;;;;;3.93;2.00;;;13.80;65.00;;;;;;6304439;22;20387;-64
2023/03/26 01:35:29;;;;;;;5.07;1.90;;;13.90;65.10;;;;;;6304349;22;20864;-64
2023/03/26 01:38:10;;;;;;;3.17;1.63;;;13.90;65.10;;;;;;6304750;22;20886;-64
2023/03/26 01:40:42;;;;;;;4.30;2.10;;;13.90;65.00;;;;;;6305372;22;20483;-63
2023/03/26 01:43:13;;;;;;;7.50;2.17;;;14.00;64.70;;;;;;6306547;22;20405;-64
2023/03/26 01:45:44;;;;;;;4.60;1.60;;;14.00;64.60;;;;;;6307310;22;20426;-63
2023/03/26 01:48:12;;;;;;;4.57;2.20;;;14.00;64.40;;;;;;6306248;22;20431;-64
2023/03/26 01:50:39;;;;;;;4.37;1.83;;;14.00;64.20;;;;;;6306397;22;20420;-63
2023/03/26 01:53:07;;;;;;;6.23;2.20;;;14.00;64.00;;;;;;6306535;22;20410;-63
2023/03/26 01:55:48;;;;;;;5.33;1.83;;;13.90;64.20;;;;;;6306753;22;20430;-64
2023/03/26 01:58:21;;;;;;;4.17;2.10;;;13.90;64.50;;;;;;6306094;22;20406;-63
2023/03/26 02:00:55;;;;;;;4.03;1.60;;;13.90;64.50;;;;;;6306858;22;20394;-64
2023/03/26 02:03:27;;;;;;;5.13;2.00;;;14.00;64.40;;;;;;6306970;22;20441;-62
2023/03/26 02:05:59;;;;;;;3.87;1.70;;;14.00;64.40;;;;;;6307257;22;20423;-64
2023/03/26 02:08:34;;;;;;;5.57;2.00;;;14.00;64.30;;;;;;6306960;22;20387;-64
2023/03/26 02:11:09;;;;;;;6.77;2.10;;;13.90;64.40;;;;;;6306818;22;20502;-64
2023/03/26 02:13:36;;;;;;;5.37;1.83;;;14.00;64.40;;;;;;6307356;22;20398;-65
2023/03/26 02:16:06;;;;;;;4.17;1.77;;;14.00;63.90;;;;;;6307675;22;20416;-64
2023/03/26 02:18:37;;;;;;;3.07;1.77;;;14.10;63.90;;;;;;6307200;22;20394;-64
2023/03/26 02:21:08;;;;;;;4.13;2.00;;;14.00;63.90;;;;;;6307839;22;20390;-63
2023/03/26 02:23:36;;;;;;;4.03;1.70;;;13.90;63.90;;;;;;6307496;22;20438;-64
2023/03/26 02:26:07;;;;;;;4.57;1.70;;;14.00;64.20;;;;;;6307421;22;20434;-64
2023/03/26 02:28:34;;;;;;;4.60;1.60;;;14.10;64.10;;;;;;6307485;22;20425;-64
2023/03/26 02:31:01;;;;;;;4.97;1.77;;;14.20;63.80;;;;;;6307164;22;20413;-63
2023/03/26 02:33:28;;;;;;;4.83;1.73;;;14.20;63.90;;;;;;6306672;22;20417;-63
2023/03/26 02:35:58;;;;;;;7.50;1.90;;;14.20;63.60;;;;;;6307323;22;20469;-65
2023/03/26 02:38:26;;;;;;;6.67;2.33;;;14.20;63.40;;;;;;6306916;22;20406;-63
2023/03/26 02:40:53;;;;;;;5.30;1.80;;;14.30;63.30;;;;;;6306626;22;20945;-63
2023/03/26 02:43:22;;;;;;;6.60;1.93;;;14.30;63.30;;;;;;6306944;22;20417;-63
2023/03/26 02:45:48;;;;;;;3.80;1.53;;;14.20;63.50;;;;;;6306633;22;20449;-64
2023/03/26 02:48:15;;;;;;;5.87;1.70;;;14.30;63.60;;;;;;6306141;22;20769;-63
2023/03/26 02:50:43;;;;;;;6.03;1.90;;;14.20;63.30;;;;;;6306860;22;20982;-63
2023/03/26 02:53:10;;;;;;;3.13;1.73;;;14.30;63.50;;;;;;6306515;22;20406;-64
2023/03/26 02:55:37;;;;;;;3.40;1.80;;;14.30;63.50;;;;;;6306841;22;20440;-63
2023/03/26 02:58:05;;;;;;;4.23;2.10;;;14.20;63.50;;;;;;6306924;22;20407;-63
2023/03/26 03:00:33;;;;;;;6.67;2.10;;;14.20;63.80;;;;;;6306464;22;20434;-64
2023/03/26 03:03:03;;;;;;;3.93;2.03;;;14.10;64.00;;;;;;6306288;22;20413;-64
2023/03/26 03:05:30;;;;;;;5.40;1.97;;;14.00;64.20;;;;;;6306964;22;20411;-63
2023/03/26 03:07:57;;;;;;;3.23;1.50;;;14.00;64.40;;;;;;6306513;22;20422;-63
2023/03/26 03:10:25;;;;;;;4.93;2.10;;;13.90;64.50;;;;;;6306667;22;20402;-65
2023/03/26 03:12:52;;;;;;;3.13;1.87;;;13.90;64.90;;;;;;6306901;22;20410;-63
2023/03/26 03:15:19;;;;;;;4.37;2.03;;;13.90;64.90;;;;;;6306538;22;20457;-63
2023/03/26 03:17:47;;;;;;;4.27;2.07;;;13.80;65.10;;;;;;6305782;22;20413;-64
2023/03/26 03:20:14;;;;;;;3.67;1.80;;;13.80;65.30;;;;;;6306410;22;20796;-64
2023/03/26 03:22:41;;;;;;;4.77;2.50;;;13.80;65.40;;;;;;6306376;22;21112;-64
2023/03/26 03:25:13;;;;;;;5.70;2.00;;;13.90;65.40;;;;;;6306831;22;20407;-63
2023/03/26 03:27:40;;;;;;;4.33;2.47;;;13.90;65.50;;;;;;6305925;22;20527;-64
2023/03/26 03:30:09;;;;;;;8.20;2.40;;;13.90;65.40;;;;;;6306189;22;21160;-63
2023/03/26 03:32:36;;;;;;;5.70;2.00;;;13.90;65.40;;;;;;6306125;22;20822;-64
2023/03/26 03:35:06;;;;;;;4.80;1.90;;;13.90;65.40;;;;;;6306575;22;20426;-63
2023/03/26 03:37:33;;;;;;;4.33;1.90;;;13.80;65.50;;;;;;6306664;22;20402;-63
2023/03/26 03:39:59;;;;;;;5.73;2.30;;;13.70;65.90;;;;;;6306604;22;20726;-64
2023/03/26 03:42:27;;;;;;;4.07;1.83;;;13.60;65.90;;;;;;6306088;22;20495;-64
2023/03/26 03:44:54;;;;;;;2.63;2.10;;;13.60;66.40;;;;;;6306121;22;20417;-64
2023/03/26 03:47:21;;;;;;;3.20;1.80;;;13.60;66.30;;;;;;6305683;22;20439;-63
2023/03/26 03:49:48;;;;;;;5.63;1.83;;;13.50;66.30;;;;;;6306748;22;20703;-63
2023/03/26 03:52:17;;;;;;;4.47;2.10;;;13.50;66.40;;;;;;6306181;22;20410;-63
2023/03/26 03:54:43;;;;;;;5.67;1.90;;;13.50;66.30;;;;;;6305926;22;20426;-63
2023/03/26 03:57:10;;;;;;;3.73;1.90;;;13.60;66.10;;;;;;6306218;22;20413;-63
2023/03/26 03:59:37;;;;;;;4.57;2.10;;;13.50;66.10;;;;;;6306266;22;20406;-64
2023/03/26 04:02:04;;;;;;;4.20;2.07;;;13.50;66.40;;;;;;6306288;22;20795;-64
2023/03/26 04:04:31;;;;;;;4.80;2.10;;;13.60;66.60;;;;;;6306652;22;20489;-64
2023/03/26 04:06:58;;;;;;;4.97;1.87;;;13.60;66.30;;;;;;6305971;22;20567;-64
2023/03/26 04:09:26;;;;;;;4.63;1.90;;;13.70;66.00;;;;;;6306617;22;20489;-64
2023/03/26 04:11:53;;;;;;;6.93;2.17;;;13.70;66.10;;;;;;6306324;22;20540;-64
2023/03/26 04:14:20;;;;;;;4.93;1.97;;;13.70;66.00;;;;;;6306162;22;20406;-63
2023/03/26 04:16:48;;;;;;;3.97;1.90;;;13.70;66.00;;;;;;6306543;22;20481;-64
2023/03/26 04:19:15;;;;;;;5.10;2.10;;;13.70;66.00;;;;;;6306647;22;20406;-64
2023/03/26 04:21:42;;;;;;;6.23;1.93;;;13.70;66.00;;;;;;6306293;22;20429;-63
2023/03/26 04:24:09;;;;;;;3.73;1.70;;;13.60;66.20;;;;;;6306336;22;20984;-63
2023/03/26 04:26:38;;;;;;;5.30;1.70;;;13.60;66.30;;;;;;6306717;22;20468;-64
2023/03/26 04:29:10;;;;;;;5.63;1.90;;;13.60;67.00;;;;;;6305557;22;20511;-63
2023/03/26 04:31:37;;;;;;;3.07;1.70;;;13.60;65.90;;;;;;6305787;22;20744;-64
2023/03/26 04:34:12;;;;;;;5.63;2.07;;;13.60;65.90;;;;;;6306152;22;20410;-63
2023/03/26 04:36:41;;;;;;;6.13;2.07;;;13.60;66.10;;;;;;6305638;22;20461;-63
2023/03/26 04:39:11;;;;;;;3.47;1.87;;;13.60;65.90;;;;;;6305865;22;20925;-64
2023/03/26 04:41:41;;;;;;;5.77;2.00;;;13.60;66.70;;;;;;6305920;22;20416;-63
2023/03/26 04:44:08;;;;;;;5.67;1.80;;;13.60;66.90;;;;;;6305663;22;20862;-63
2023/03/26 04:46:34;;;;;;;2.50;1.50;;;13.60;66.70;;;;;;6306066;22;20525;-64
2023/03/26 04:49:01;;;;;;;3.90;1.90;;;13.60;66.50;;;;;;6305654;22;20505;-64
2023/03/26 04:51:36;;;;;;;4.97;1.97;;;13.60;66.80;;;;;;6305396;22;20410;-64
2023/03/26 04:54:04;;;;;;;4.00;1.93;;;13.70;67.10;;;;;;6306569;22;20481;-64
2023/03/26 04:56:39;;;;;;;5.90;1.60;;;13.70;67.20;;;;;;6305719;22;20430;-64
2023/03/26 04:59:13;;;;;;;4.30;2.30;;;13.70;66.90;;;;;;6305380;22;20396;-64
2023/03/26 05:01:41;;;;;;;5.07;1.60;;;13.70;67.00;;;;;;6305472;22;20389;-64
2023/03/26 05:04:08;;;;;;;5.30;1.90;;;13.80;67.00;;;;;;6305987;22;20517;-64
2023/03/26 05:06:36;;;;;;;6.07;1.87;;;13.80;67.00;;;;;;6305740;22;20466;-64
2023/03/26 05:09:04;;;;;;;3.60;1.90;;;13.80;67.00;;;;;;6305769;22;20885;-63
2023/03/26 05:11:30;;;;;;;4.47;1.80;;;13.80;66.70;;;;;;6305893;22;20471;-63
2023/03/26 05:13:57;;;;;;;6.70;2.00;;;13.80;66.70;;;;;;6305084;22;20919;-64
2023/03/26 05:16:26;;;;;;;5.03;2.03;;;13.80;67.10;;;;;;6305466;22;21200;-63
2023/03/26 05:18:53;;;;;;;6.00;1.90;;;13.80;67.40;;;;;;6307916;22;20414;-63
2023/03/26 05:21:21;;;;;;;4.03;1.90;;;13.80;67.60;;;;;;6307131;22;20954;-64
2023/03/26 05:23:48;;;;;;;5.47;1.93;;;13.70;67.50;;;;;;6307774;22;20907;-64
2023/03/26 05:26:15;;;;;;;4.90;1.97;;;13.80;67.50;;;;;;6307204;22;20395;-64
2023/03/26 05:28:42;;;;;;;6.50;2.00;;;13.80;67.50;;;;;;6306909;22;21128;-64
2023/03/26 05:31:09;;;;;;;6.17;2.40;;;13.80;67.30;;;;;;6307272;22;20436;-63
2023/03/26 05:33:37;;;;;;;4.30;2.10;;;13.80;67.00;;;;;;6307677;22;20526;-64
2023/03/26 05:36:08;;;;;;;8.87;2.50;;;13.80;67.10;;;;;;6307496;22;20445;-64
2023/03/26 05:38:35;;;;;;;6.47;2.30;;;13.80;67.10;;;;;;6307319;22;20441;-64
2023/03/26 05:41:06;;;;;;;5.43;2.27;;;13.80;66.80;;;;;;6307864;22;20880;-64
2023/03/26 05:43:33;;;;;;;5.80;1.83;;;13.80;66.90;;;;;;6308071;22;20771;-64
2023/03/26 05:46:00;;;;;;;4.83;1.73;;;13.80;67.70;;;;;;6307752;22;20418;-64
2023/03/26 05:48:27;;;;;;;5.93;1.77;;;13.80;66.60;;;;;;6307376;22;20480;-64
2023/03/26 05:50:57;;;;;;;3.20;1.90;;;13.90;66.70;;;;;;6307257;22;20408;-64
2023/03/26 05:53:26;;;;;;;5.03;1.70;;;13.90;67.00;;;;;;6307226;22;20924;-64
2023/03/26 05:55:56;;;;;;;5.53;2.00;;;13.90;66.80;;;;;;6307217;22;20517;-64
2023/03/26 05:58:23;;;;;;;4.23;1.80;;;13.90;66.70;;;;;;6307265;22;20456;-64
2023/03/26 06:00:58;;;;;;;5.83;1.90;;;13.80;66.10;;;;;;6307432;22;20406;-64
2023/03/26 06:03:25;;;;;;;8.43;2.30;;;13.90;66.20;;;;;;6307921;22;20396;-64
2023/03/26 06:05:52;;;;;;;3.93;1.70;;;13.90;67.30;;;;;;6308073;22;20403;-63
2023/03/26 06:08:20;;;;;;;5.90;1.90;;;13.90;66.70;;;;;;6307422;22;20511;-64
2023/03/26 06:10:47;;;;;;;4.73;1.90;;;13.90;65.90;;;;;;6307461;22;20501;-64
2023/03/26 06:13:15;;;;;;;3.90;1.70;;;13.90;65.80;;;;;;6307787;22;20427;-64
2023/03/26 06:15:42;;;;;;;6.67;2.03;;;13.90;66.40;;;;;;6307535;22;20426;-63
2023/03/26 06:18:09;;;;;;;10.60;2.50;;;13.80;65.50;;;;;;6307584;22;20479;-64
2023/03/26 06:20:36;;;;;;;6.27;2.10;;;13.80;65.50;;;;;;6307680;22;20966;-63
2023/03/26 06:23:03;;;;;;;5.60;1.80;;;13.70;65.70;;;;;;6307375;22;20413;-64
2023/03/26 06:25:31;;;;;;;8.57;2.00;;;13.70;65.60;;;;;;6307204;22;20436;-64
2023/03/26 06:27:58;;;;;;;7.93;1.90;;;13.80;65.60;;;;;;6307420;22;20518;-64
2023/03/26 06:30:25;;;;;;;7.60;2.43;;;13.80;65.70;;;;;;6306950;22;20936;-64
2023/03/26 06:32:51;;;;;;;8.53;2.00;;;13.90;65.30;;;;;;6306673;22;20724;-64
2023/03/26 06:35:19;;;;;;;4.93;1.80;;;13.80;64.80;;;;;;6306878;22;20417;-64
2023/03/26 06:37:46;;;;;;;5.00;1.77;;;13.90;65.40;;;;;;6306670;22;20409;-64
2023/03/26 06:40:13;;;;;;;6.23;2.00;;;13.90;64.80;;;;;;6306679;22;20893;-64
2023/03/26 06:42:41;;;;;;;4.07;1.50;;;13.90;64.40;;;;;;6306702;22;21210;-64
2023/03/26 06:45:09;;;;;;;7.63;2.43;;;13.90;64.70;;;;;;6306666;22;20426;-64
2023/03/26 06:47:36;;;;;;;3.17;1.50;;;13.90;65.10;;;;;;6306775;22;20740;-64
2023/03/26 06:50:03;;;;;;;4.30;1.73;;;14.00;64.90;;;;;;6306618;22;20493;-64
2023/03/26 06:52:30;;;;;;;5.77;1.83;;;13.90;64.80;;;;;;6306734;22;20514;-64
2023/03/26 06:54:57;;;;;;;6.33;1.90;;;13.90;65.20;;;;;;6306765;22;20413;-63
2023/03/26 06:57:23;;;;;;;5.37;1.73;;;13.90;64.80;;;;;;6307037;22;20485;-64
2023/03/26 06:59:52;;;;;;;6.33;2.10;;;13.90;64.70;;;;;;6306673;22;20482;-64
2023/03/26 07:02:18;;;;;;;5.97;1.93;;;14.00;64.80;;;;;;6306399;22;20491;-64
2023/03/26 07:04:45;;;;;;;5.87;2.00;;;14.00;64.40;;;;;;6306838;22;20477;-64
2023/03/26 07:07:13;;;;;;;5.60;1.80;;;14.00;64.60;;;;;;6306527;22;21033;-64
2023/03/26 07:09:40;;;;;;;4.07;1.67;;;14.00;64.00;;;;;;6306590;22;20871;-65
2023/03/26 07:12:07;;;;;;;4.67;1.83;;;14.00;65.30;;;;;;6306467;22;20437;-65
2023/03/26 07:14:37;;;;;;;5.77;1.93;;;14.00;64.60;;;;;;6306514;22;20473;-64
2023/03/26 07:17:05;;;;;;;6.10;1.70;;;14.00;64.80;;;;;;6306567;22;20397;-63
2023/03/26 07:19:32;;;;;;;3.70;1.87;;;14.00;65.10;;;;;;6306260;22;20413;-64
2023/03/26 07:21:59;;;;;;;3.33;1.53;;;14.00;65.60;;;;;;6306131;22;20884;-64
2023/03/26 07:24:27;;;;;;;3.70;1.70;;;14.00;65.80;;;;;;6306669;22;20441;-63
2023/03/26 07:26:59;;;;;;;5.47;2.00;;;14.00;66.00;;;;;;6306337;22;20433;-63
2023/03/26 07:29:34;;;;;;;4.53;1.80;;;14.00;66.10;;;;;;6306628;22;20497;-63
2023/03/26 07:32:14;;;;;;;3.63;1.47;;;14.00;66.60;;;;;;6306051;22;20390;-64
2023/03/26 07:34:50;;;;;;;2.57;1.60;;;14.00;66.70;;;;;;6305987;22;20922;-64
2023/03/26 07:37:33;;;;;;;3.73;1.70;;;14.00;66.70;;;;;;6305474;22;20868;-64
2023/03/26 07:40:04;;;;;;;5.93;1.90;;;14.00;68.10;;;;;;6306761;22;20387;-64
2023/03/26 07:42:50;;;;;;;4.87;2.13;;;14.00;67.50;;;;;;6306868;22;20418;-65
2023/03/26 07:45:22;;;;;;;3.43;1.60;;;14.00;67.90;;;;;;6306739;22;20786;-64
2023/03/26 07:47:52;;;;;;;4.23;1.73;;;13.90;68.80;;;;;;6306540;22;20472;-64
2023/03/26 07:50:22;;;;;;;4.17;1.93;;;13.90;69.70;;;;;;6306814;22;20464;-64
2023/03/26 07:52:50;;;;;;;7.07;2.40;;;14.00;70.20;;;;;;6306271;22;20430;-65
2023/03/26 07:55:18;;;;;;;6.90;3.20;;;14.00;70.30;;;;;;6306539;22;20409;-65
2023/03/26 07:57:58;;;;;;;7.80;3.87;;;14.00;71.10;;;;;;6306147;22;20473;-65
2023/03/26 08:00:33;;;;;;;5.37;3.47;;;14.00;71.70;;;;;;6305797;22;20513;-64
2023/03/26 08:03:14;;;;;;;3.87;2.43;;;14.10;72.50;;;;;;6306478;22;20464;-64
2023/03/26 08:05:47;;;;;;;3.97;2.50;;;14.10;71.70;;;;;;6306317;22;20517;-67
2023/03/26 08:08:19;;;;;;;5.03;2.77;;;14.10;72.60;;;;;;6305991;22;21152;-67
2023/03/26 08:11:00;;;;;;;6.03;2.43;;;14.10;71.30;;;;;;6306329;22;20465;-67
2023/03/26 08:13:36;;;;;;;7.80;2.20;;;14.10;71.30;;;;;;6306094;22;20485;-65
2023/03/26 08:16:08;;;;;;;6.40;2.10;;;14.10;70.70;;;;;;6305878;22;20504;-67
2023/03/26 08:18:49;;;;;;;9.07;2.20;;;14.00;71.10;;;;;;6305804;22;20393;-65
2023/03/26 08:21:24;;;;;;;4.07;1.80;;;13.90;71.40;;;;;;6305882;22;20391;-65
2023/03/26 08:24:02;;;;;;;3.97;2.00;;;13.90;71.70;;;;;;6305727;22;20433;-64
2023/03/26 08:26:37;;;;;;;8.33;2.10;;;13.80;72.40;;;;;;6306039;22;20394;-64
2023/03/26 08:29:17;;;;;;;5.93;1.90;;;13.80;72.40;;;;;;6305464;22;20497;-64
2023/03/26 08:31:46;;;;;;;7.73;2.27;;;13.80;72.50;;;;;;6305334;22;20426;-64
2023/03/26 08:34:14;;;;;;;5.03;1.83;;;13.80;72.60;;;;;;6305494;22;20431;-64
2023/03/26 08:36:41;;;;;;;6.00;2.13;;;13.70;73.10;;;;;;6305341;22;20402;-64
2023/03/26 08:39:08;;;;;;;2.93;1.90;;;13.80;73.80;;;;;;6305719;22;20485;-65
2023/03/26 08:42:18;;;;;;;4.73;1.90;;;13.80;73.10;;;;;;6305882;22;20412;-63
2023/03/26 08:45:29;;;;;;;3.93;1.80;;;13.90;72.90;;;;;;6305385;22;20428;-64
2023/03/26 08:48:36;;;;;;;4.30;2.20;;;13.90;73.20;;;;;;6250176;22;20481;-64
2023/03/26 08:51:46;;;;;;;8.13;4.33;;;13.90;74.00;;;;;;6305739;22;20433;-64
2023/03/26 08:54:46;;;;;;;7.27;4.00;;;13.90;74.00;;;;;;6307900;22;20473;-64
2023/03/26 08:57:45;;;;;;;5.80;3.10;;;14.00;74.40;;;;;;6307824;22;20456;-64
2023/03/26 09:00:45;;;;;;;4.90;2.13;;;14.10;74.20;;;;;;6307940;22;20470;-65
2023/03/26 09:03:46;;;;;;;5.03;1.93;;;14.30;73.70;;;;;;6307149;22;20434;-64
2023/03/26 09:06:36;;;;;;;3.37;2.13;;;14.40;72.90;;;;;;6307590;22;20933;-64
2023/03/26 09:09:39;;;;;;;4.43;1.97;;;14.30;72.50;;;;;;6307501;22;20542;-64
2023/03/26 09:12:58;;;;;;;5.97;2.40;;;14.30;72.70;;;;;;6302061;22;20930;-64
2023/03/26 09:16:04;;;;;;;5.87;2.60;;;14.40;73.30;;;;;;6307722;22;20731;-64
2023/03/26 09:19:16;;;;;;;6.60;2.63;;;14.40;73.70;;;;;;6307049;22;20460;-65
2023/03/26 09:22:21;;;;;;;8.73;3.90;;;14.40;73.60;;;;;;6307441;22;20392;-64
2023/03/26 09:25:23;;;;;;;4.63;2.77;;;14.50;73.80;;;;;;6306692;22;20430;-66
2023/03/26 09:28:22;;;;;;;6.47;2.40;;;14.40;73.70;;;;;;6268557;22;20525;-65
2023/03/26 09:31:05;;;;;;;3.50;2.43;;;14.50;74.50;;;;;;6308104;22;20425;-64
2023/03/26 09:33:54;;;;;;;4.73;2.47;;;14.70;74.90;;;;;;6307068;22;20386;-65
2023/03/26 09:36:33;;;;;;;4.97;2.07;;;14.90;75.70;;;;;;6307785;22;20921;-66
2023/03/26 09:39:15;;;;;;;5.43;2.20;;;15.20;76.20;;;;;;6307585;22;20761;-65
2023/03/26 09:41:56;;;;;;;5.27;2.50;;;15.40;76.30;;;;;;6307226;22;20396;-65
2023/03/26 09:45:03;;;;;;;4.43;3.00;;;15.50;76.50;;;;;;6306889;22;20393;-65
2023/03/26 09:47:42;;;;;;;6.37;2.50;;;15.60;76.60;;;;;;6307116;22;20386;-64
2023/03/26 09:50:23;;;;;;;5.60;2.53;;;15.50;74.20;;;;;;6307312;22;20436;-65
2023/03/26 09:53:04;;;;;;;3.20;2.20;;;15.50;74.90;;;;;;6307253;22;20389;-65
2023/03/26 09:55:44;;;;;;;4.43;2.37;;;15.50;75.00;;;;;;6306803;22;20383;-66
2023/03/26 09:58:39;;;;;;;3.93;2.10;;;15.60;75.60;;;;;;6306740;22;20711;-66
2023/03/26 10:01:11;;;;;;;6.47;2.30;;;15.60;75.30;;;;;;6265792;22;20418;-66
2023/03/26 10:03:53;;;;;;;4.87;2.23;;;15.40;74.80;;;;;;6305349;22;20441;-66
2023/03/26 10:06:31;;;;;;;4.57;2.27;;;15.30;75.40;;;;;;6307119;22;20386;-65
2023/03/26 10:09:30;;;;;;;4.87;2.40;;;15.30;76.40;;;;;;6306132;22;20534;-65
2023/03/26 10:12:24;;;;;;;5.13;2.17;;;15.30;75.60;;;;;;6298672;22;20747;-65
2023/03/26 10:15:07;;;;;;;4.30;2.00;;;15.20;75.00;;;;;;6306798;22;20468;-65
2023/03/26 10:17:45;;;;;;;5.93;1.93;;;15.30;75.50;;;;;;6306368;22;20770;-67
2023/03/26 10:20:42;;;;;;;4.43;1.90;;;15.30;72.20;;;;;;6306513;22;20386;-64
2023/03/26 10:23:26;;;;;;;5.00;1.90;;;15.30;73.60;;;;;;6304404;22;20434;-65
2023/03/26 10:26:27;;;;;;;2.10;1.40;;;15.60;73.30;;;;;;6306305;22;20401;-65
2023/03/26 10:29:27;;;;;;;3.57;1.80;;;15.60;71.10;;;;;;6255576;22;20524;-65
2023/03/26 10:32:06;;;;;;;2.73;1.60;;;15.70;71.70;;;;;;6305117;22;20395;-65
2023/03/26 10:34:50;;;;;;;3.30;1.70;;;15.80;69.20;;;;;;6252499;22;20416;-66
2023/03/26 10:37:30;;;;;;;2.90;1.30;;;15.80;62.70;;;;;;6307073;22;20791;-65
2023/03/26 10:40:14;;;;;;;2.20;1.10;;;15.80;63.20;;;;;;6306290;22;20440;-65
2023/03/26 10:43:08;;;;;;;3.03;1.13;;;16.10;63.10;;;;;;6305813;22;20906;-64
2023/03/26 10:45:50;;;;;;;1.63;1.20;;;16.30;60.50;;;;;;6305407;22;20410;-64
2023/03/26 10:48:30;;;;;;;1.20;1.00;;;16.30;61.50;;;;;;6306927;22;20491;-64
2023/03/26 10:51:27;;;;;;;2.87;1.10;;;16.60;59.90;;;;;;6306868;22;20477;-65
2023/03/26 10:53:57;;;;;;;2.60;1.10;;;16.70;59.30;;;;;;6306390;22;20458;-65
2023/03/26 10:56:28;;;;;;;1.17;0.80;;;16.90;57.60;;;;;;6306821;22;20521;-65
2023/03/26 10:58:56;;;;;;;2.83;1.60;;;17.00;58.00;;;;;;6306051;22;20410;-65
2023/03/26 11:01:35;;;;;;;3.07;1.53;;;17.00;55.30;;;;;;6306110;22;20740;-65
2023/03/26 11:04:18;;;;;;;2.80;1.40;;;17.20;55.00;;;;;;6306391;22;20517;-64
2023/03/26 11:06:54;;;;;;;2.70;1.60;;;17.10;51.00;;;;;;6306979;22;20469;-65
2023/03/26 11:09:33;;;;;;;2.10;1.10;;;17.10;51.00;;;;;;6306519;22;20924;-65
2023/03/26 11:12:10;;;;;;;4.23;1.37;;;17.20;50.50;;;;;;6307243;22;20386;-66
2023/03/26 11:14:45;;;;;;;2.63;1.30;;;17.00;48.20;;;;;;6305616;22;20420;-66
2023/03/26 11:17:18;;;;;;;2.37;1.03;;;17.00;48.30;;;;;;6306440;22;20440;-66
2023/03/26 11:19:52;;;;;;;1.83;0.80;;;17.20;50.20;;;;;;6305701;22;20405;-64
2023/03/26 11:22:29;;;;;;;3.07;1.00;;;17.30;47.60;;;;;;6307064;22;20436;-65
2023/03/26 11:25:12;;;;;;;2.20;1.00;;;17.20;46.20;;;;;;6306526;22;20391;-65
2023/03/26 11:27:50;;;;;;;2.07;1.10;;;17.10;46.40;;;;;;6305403;22;20390;-65
2023/03/26 11:30:27;;;;;;;1.10;0.80;;;17.20;47.20;;;;;;6305158;22;20965;-64
2023/03/26 11:32:58;;;;;;;3.30;1.33;;;17.30;48.40;;;;;;6306300;22;20393;-64
2023/03/26 11:35:33;;;;;;;2.23;1.30;;;17.30;47.60;;;;;;6306083;22;20484;-65
2023/03/26 11:38:04;;;;;;;1.50;0.90;;;17.50;48.00;;;;;;6305380;22;20405;-65
2023/03/26 11:40:35;;;;;;;4.40;1.40;;;17.50;47.70;;;;;;6304693;22;20402;-66
2023/03/26 11:43:05;;;;;;;2.47;0.90;;;17.60;47.20;;;;;;6305510;22;20458;-64
2023/03/26 11:45:36;;;;;;;1.63;1.00;;;17.40;47.30;;;;;;6305538;22;20441;-65
2023/03/26 11:48:08;;;;;;;3.20;1.20;;;17.40;47.10;;;;;;6305124;22;20464;-66
2023/03/26 11:50:40;;;;;;;2.30;1.20;;;17.30;46.10;;;;;;6305507;22;20387;-66
2023/03/26 11:53:12;;;;;;;1.50;1.00;;;17.40;45.70;;;;;;6305594;22;20386;-66
2023/03/26 11:55:42;;;;;;;2.17;1.07;;;17.30;44.80;;;;;;6305561;22;20430;-64
2023/03/26 11:58:26;;;;;;;1.43;0.93;;;17.40;46.10;;;;;;6305547;22;20485;-65
2023/03/26 12:00:55;;;;;;;1.63;1.20;;;17.50;44.40;;;;;;6305867;22;20437;-67
2023/03/26 12:03:22;;;;;;;0.90;0.80;;;17.50;45.50;;;;;;6305778;22;20163;-67
2023/03/26 12:05:53;;;;;;;1.73;1.00;;;17.70;45.80;;;;;;6306093;22;20429;-67
2023/03/26 12:08:26;;;;;;;2.80;1.33;;;17.90;46.10;;;;;;6305770;22;20483;-67
2023/03/26 12:11:02;;;;;;;2.77;1.13;;;18.00;46.00;;;;;;6305949;22;20194;-66
2023/03/26 12:13:35;;;;;;;3.13;1.40;;;18.20;46.20;;;;;;6305573;22;20433;-66
2023/03/26 12:16:08;;;;;;;2.80;1.00;;;18.20;45.90;;;;;;6305835;22;20906;-66
2023/03/26 12:18:37;;;;;;;3.10;1.37;;;18.20;44.70;;;;;;6305989;22;20387;-66
2023/03/26 12:21:08;;;;;;;2.20;1.40;;;18.10;44.30;;;;;;6306106;22;20438;-65
2023/03/26 12:23:39;;;;;;;4.87;1.27;;;18.00;45.30;;;;;;6305458;22;20481;-65
2023/03/26 12:26:16;;;;;;;3.53;1.40;;;18.00;44.90;;;;;;6305560;22;20430;-65
2023/03/26 12:28:47;;;;;;;2.93;1.20;;;18.10;45.70;;;;;;6304850;22;20425;-66
2023/03/26 12:31:18;;;;;;;4.33;1.67;;;18.40;45.50;;;;;;6305499;22;20434;-65
2023/03/26 12:33:51;;;;;;;2.20;1.27;;;18.40;44.70;;;;;;6304765;22;20493;-65
2023/03/26 12:36:29;;;;;;;5.03;1.20;;;18.30;44.50;;;;;;6305223;22;20210;-66
2023/03/26 12:38:56;;;;;;;1.73;0.90;;;18.30;44.20;;;;;;6304629;22;20245;-65
2023/03/26 12:41:35;;;;;;;2.60;1.23;;;18.40;43.50;;;;;;6251219;22;20410;-65
2023/03/26 12:44:23;;;;;;;3.47;1.63;;;18.50;44.00;;;;;;6303966;22;20168;-65
2023/03/26 12:46:52;;;;;;;4.00;1.40;;;18.60;43.20;;;;;;6304719;22;20164;-65
2023/03/26 12:49:20;;;;;;;2.57;1.30;;;18.50;43.00;;;;;;6304657;22;20200;-65
2023/03/26 12:51:55;;;;;;;2.43;1.30;;;18.30;43.00;;;;;;6304773;22;20419;-65
2023/03/26 12:54:38;;;;;;;2.03;1.27;;;18.30;44.00;;;;;;6304951;22;20258;-65
2023/03/26 12:57:19;;;;;;;2.40;1.30;;;18.20;43.40;;;;;;6305125;22;20199;-66
2023/03/26 13:00:12;;;;;;;4.10;1.53;;;18.30;43.90;;;;;;6305799;22;20459;-65
2023/03/26 13:02:58;;;;;;;1.90;1.17;;;18.30;44.00;;;;;;6305690;22;20233;-65
2023/03/26 13:05:49;;;;;;;2.23;1.53;;;18.40;43.60;;;;;;6305894;22;20573;-65
2023/03/26 13:08:37;;;;;;;3.70;1.40;;;18.60;43.60;;;;;;6305512;22;20593;-65
2023/03/26 13:11:11;;;;;;;3.77;1.40;;;18.70;43.80;;;;;;6305746;22;20162;-64
2023/03/26 13:14:09;;;;;;;2.77;1.20;;;18.70;42.80;;;;;;6305605;22;20444;-64
2023/03/26 13:16:41;;;;;;;2.80;1.40;;;18.60;42.90;;;;;;6297666;22;20184;-65
2023/03/26 13:19:14;;;;;;;3.00;1.23;;;18.60;43.70;;;;;;6305613;22;20478;-65
2023/03/26 13:22:00;;;;;;;2.30;1.40;;;18.40;43.50;;;;;;6306549;22;20489;-64